Time;durP1;ratioP1;P1;durP2;ratioP2;P2;SDS_P1;SDS_P2;PMS_P1;PMS_P2;Temp;Humidity;BMP_temperature;BMP_pressure;BME280_temperature;BME280_humidity;BME280_pressure;Samples;Min_cycle;Max_cycle;Signal;HPM_P1;HPM_P2
2022/06/08 00:02:23;;;;;;;4.03;2.80;;;;;;;18.90;59.28;96640.03;5066667;28;20215;-72
2022/06/08 00:04:50;;;;;;;3.23;2.90;;;;;;;18.74;59.84;96649.34;5065794;28;20194;-70
2022/06/08 00:07:17;;;;;;;12.70;3.20;;;;;;;18.56;60.38;96654.34;5066847;28;20501;-70
2022/06/08 00:09:44;;;;;;;3.90;2.90;;;;;;;18.34;61.17;96651.84;5065984;28;20187;-71
2022/06/08 00:12:11;;;;;;;4.70;2.97;;;;;;;17.93;62.40;96649.16;5048351;28;20205;-71
2022/06/08 00:14:38;;;;;;;4.97;3.03;;;;;;;17.75;63.20;96654.91;5066213;28;20185;-71
2022/06/08 00:17:05;;;;;;;3.20;2.90;;;;;;;17.79;63.46;96650.25;5066285;28;20190;-71
2022/06/08 00:19:33;;;;;;;3.93;3.30;;;;;;;17.54;64.27;96643.53;5066404;28;20655;-73
2022/06/08 00:22:00;;;;;;;7.17;2.87;;;;;;;17.32;66.32;96640.91;5065678;28;20807;-72
2022/06/08 00:24:27;;;;;;;3.53;2.90;;;;;;;17.50;66.20;96641.25;5066484;28;20297;-72
2022/06/08 00:26:54;;;;;;;4.10;3.57;;;;;;;17.84;65.48;96643.69;5065568;28;20765;-72
2022/06/08 00:29:21;;;;;;;4.53;3.00;;;;;;;18.16;64.24;96642.84;5066390;28;20240;-72
2022/06/08 00:31:51;;;;;;;3.67;3.27;;;;;;;18.36;63.88;96640.22;5048129;28;20667;-72
2022/06/08 00:34:18;;;;;;;3.10;2.80;;;;;;;18.59;63.08;96635.72;5048114;28;20576;-73
2022/06/08 00:36:46;;;;;;;3.40;3.00;;;;;;;18.37;62.78;96627.97;5048359;28;20989;-72
2022/06/08 00:39:13;;;;;;;4.73;3.17;;;;;;;17.85;64.66;96623.56;5065443;28;20187;-72
2022/06/08 00:41:52;;;;;;;5.07;3.40;;;;;;;17.66;65.38;96624.22;5066514;28;20721;-73
2022/06/08 00:44:27;;;;;;;4.10;3.17;;;;;;;17.85;65.83;96616.53;5047728;28;20196;-74
2022/06/08 00:46:55;;;;;;;3.90;3.50;;;;;;;18.08;65.23;96630.38;5015077;28;20586;-74
2022/06/08 00:49:57;;;;;;;4.77;3.73;;;;;;;18.20;64.37;96628.53;5048135;28;20712;-73
2022/06/08 00:52:26;;;;;;;4.83;3.83;;;;;;;17.99;64.61;96635.53;5022677;28;20634;-73
2022/06/08 00:54:58;;;;;;;4.30;3.57;;;;;;;17.47;66.38;96628.41;5048281;28;20209;-73
2022/06/08 00:57:30;;;;;;;4.97;4.47;;;;;;;17.20;67.36;96635.81;5031447;28;20195;-74
2022/06/08 01:00:04;;;;;;;4.97;4.13;;;;;;;17.07;67.83;96635.94;5065740;28;20273;-74
2022/06/08 01:02:31;;;;;;;5.80;4.47;;;;;;;17.28;67.31;96639.50;5066285;28;20220;-72
2022/06/08 01:05:18;;;;;;;4.43;4.03;;;;;;;17.42;66.81;96641.84;5034827;28;20196;-72
2022/06/08 01:07:46;;;;;;;4.00;3.63;;;;;;;17.50;66.83;96638.66;5069852;28;20666;-72
2022/06/08 01:10:16;;;;;;;4.67;4.17;;;;;;;17.63;65.77;96631.50;5051115;28;20198;-70
2022/06/08 01:12:43;;;;;;;5.23;3.90;;;;;;;17.48;66.44;96625.66;5051342;28;20322;-73
2022/06/08 01:15:19;;;;;;;4.80;4.13;;;;;;;17.27;66.67;96629.97;5051424;28;20556;-71
2022/06/08 01:17:47;;;;;;;5.33;4.10;;;;;;;17.36;66.21;96639.72;5050957;28;20193;-71
2022/06/08 01:20:16;;;;;;;6.17;3.93;;;;;;;17.61;66.03;96642.09;5051556;28;20193;-73
2022/06/08 01:22:43;;;;;;;4.63;4.13;;;;;;;17.78;65.33;96636.31;5050595;28;20217;-71
2022/06/08 01:25:12;;;;;;;4.43;3.83;;;;;;;17.78;65.30;96636.31;5051186;28;20232;-73
2022/06/08 01:27:57;;;;;;;6.07;3.90;;;;;;;17.95;65.33;96634.13;5050932;28;20250;-71
2022/06/08 01:30:26;;;;;;;6.50;3.87;;;;;;;18.17;64.70;96631.41;5068868;28;20188;-74
2022/06/08 01:32:56;;;;;;;4.50;3.90;;;;;;;18.24;64.33;96629.94;5051075;28;20259;-72
2022/06/08 01:35:52;;;;;;;3.83;3.40;;;;;;;18.14;64.35;96637.72;5068391;28;20214;-71
2022/06/08 01:38:38;;;;;;;5.30;3.67;;;;;;;17.94;64.52;96633.28;5069008;28;20793;-71
2022/06/08 01:41:28;;;;;;;5.87;5.27;;;;;;;17.33;66.58;96632.09;5068612;28;20624;-71
2022/06/08 01:44:39;;;;;;;6.10;3.77;;;;;;;17.29;66.47;96630.66;5033900;28;20195;-72
2022/06/08 01:47:50;;;;;;;5.43;4.07;;;;;;;17.22;67.22;96633.91;5068732;28;20259;-71
2022/06/08 01:50:55;;;;;;;5.37;3.90;;;;;;;17.23;67.12;96628.53;5036537;28;20684;-70
2022/06/08 01:54:01;;;;;;;4.73;4.30;;;;;;;17.15;67.26;96630.94;5068533;28;20221;-70
2022/06/08 01:56:56;;;;;;;6.57;4.40;;;;;;;16.78;68.38;96619.03;5026122;28;20208;-70
2022/06/08 01:59:31;;;;;;;5.57;3.90;;;;;;;16.98;68.28;96621.78;5050940;28;20225;-70
2022/06/08 02:02:25;;;;;;;4.47;3.73;;;;;;;17.06;67.59;96606.31;5033716;28;20223;-70
2022/06/08 02:05:13;;;;;;;4.70;3.90;;;;;;;17.43;66.92;96612.13;5068404;28;20185;-69
2022/06/08 02:07:48;;;;;;;8.67;3.93;;;;;;;17.64;66.05;96620.88;5051013;28;20229;-70
2022/06/08 02:10:16;;;;;;;3.97;3.43;;;;;;;17.81;66.07;96622.97;5050457;28;20221;-70
2022/06/08 02:12:51;;;;;;;4.93;4.07;;;;;;;17.86;65.26;96622.63;5054457;28;20183;-70
2022/06/08 02:15:45;;;;;;;4.40;3.93;;;;;;;17.78;64.73;96628.44;5051418;28;20514;-71
2022/06/08 02:18:21;;;;;;;4.73;3.83;;;;;;;17.47;66.10;96624.00;5051991;28;20676;-71
2022/06/08 02:21:06;;;;;;;7.13;4.97;;;;;;;16.79;68.43;96631.19;5051569;28;20220;-73
2022/06/08 02:24:05;;;;;;;5.63;4.13;;;;;;;16.41;69.44;96633.22;5049624;28;20773;-72
2022/06/08 02:26:41;;;;;;;5.27;4.77;;;;;;;16.20;70.43;96635.66;5049839;28;20228;-71
2022/06/08 02:29:13;;;;;;;5.47;4.20;;;;;;;16.28;70.73;96634.13;5050218;28;20191;-70
2022/06/08 02:31:48;;;;;;;7.50;4.40;;;;;;;16.73;69.43;96631.66;5049816;28;20197;-71
2022/06/08 02:34:34;;;;;;;6.23;4.00;;;;;;;16.95;67.57;96632.50;5050407;28;20193;-71
2022/06/08 02:37:17;;;;;;;4.27;3.87;;;;;;;17.32;66.79;96643.53;5049599;28;20223;-72
2022/06/08 02:40:12;;;;;;;5.30;4.40;;;;;;;17.23;66.49;96636.41;5049505;28;20183;-71
2022/06/08 02:42:58;;;;;;;4.47;3.90;;;;;;;17.07;66.38;96626.31;5049934;28;20234;-71
2022/06/08 02:45:30;;;;;;;4.30;3.87;;;;;;;16.65;68.10;96639.25;5067375;28;20215;-72
2022/06/08 02:48:05;;;;;;;5.37;4.17;;;;;;;16.16;69.51;96632.44;5032778;28;20193;-71
2022/06/08 02:50:33;;;;;;;5.40;4.40;;;;;;;15.78;70.91;96634.44;5049457;28;20197;-71
2022/06/08 02:53:30;;;;;;;5.93;4.10;;;;;;;15.82;71.14;96646.34;5048899;28;20181;-70
2022/06/08 02:56:13;;;;;;;4.20;3.80;;;;;;;15.89;70.67;96637.09;5049188;28;20312;-71
2022/06/08 02:59:01;;;;;;;4.40;3.83;;;;;;;16.46;69.33;96638.94;5066954;28;20220;-70
2022/06/08 03:01:38;;;;;;;5.33;3.97;;;;;;;16.86;67.64;96634.97;5048669;28;20792;-70
2022/06/08 03:04:14;;;;;;;5.10;3.90;;;;;;;17.05;66.85;96643.91;5050027;28;20196;-71
2022/06/08 03:06:54;;;;;;;4.37;3.50;;;;;;;17.07;66.09;96635.94;5049133;28;20220;-73
2022/06/08 03:09:22;;;;;;;6.17;4.50;;;;;;;16.59;67.31;96639.72;5032453;28;20195;-71
2022/06/08 03:12:10;;;;;;;7.37;4.30;;;;;;;16.40;68.36;96642.03;5049516;28;20198;-72
2022/06/08 03:14:39;;;;;;;5.60;4.10;;;;;;;16.47;67.93;96637.97;5049351;28;20182;-71
2022/06/08 03:17:08;;;;;;;6.57;4.57;;;;;;;16.76;67.18;96634.03;5068086;28;20205;-71
2022/06/08 03:19:37;;;;;;;4.77;4.13;;;;;;;16.92;66.43;96637.13;5049103;28;20619;-70
2022/06/08 03:22:06;;;;;;;4.73;4.20;;;;;;;17.20;65.35;96641.03;5049261;28;20305;-70
2022/06/08 03:24:34;;;;;;;5.83;4.20;;;;;;;17.24;65.09;96640.69;5048811;28;20196;-71
2022/06/08 03:27:08;;;;;;;5.93;4.10;;;;;;;17.22;64.72;96642.59;5048018;28;20232;-71
2022/06/08 03:29:37;;;;;;;5.87;4.70;;;;;;;17.09;65.19;96644.50;5049192;28;20580;-70
2022/06/08 03:32:05;;;;;;;6.10;4.50;;;;;;;16.81;66.30;96642.34;5048474;28;20186;-73
2022/06/08 03:34:33;;;;;;;5.83;3.73;;;;;;;16.71;66.70;96651.84;5067388;28;20254;-73
2022/06/08 03:37:00;;;;;;;8.33;4.63;;;;;;;16.76;66.77;96647.94;5048261;28;20199;-71
2022/06/08 03:39:29;;;;;;;4.03;3.70;;;;;;;16.90;66.70;96652.09;5048836;28;20197;-70
2022/06/08 03:41:57;;;;;;;4.87;3.87;;;;;;;17.27;65.98;96652.72;5048472;28;20259;-71
2022/06/08 03:44:24;;;;;;;6.17;4.60;;;;;;;17.10;64.98;96618.19;5048400;28;20205;-70
2022/06/08 03:46:56;;;;;;;5.20;4.57;;;;;;;16.94;65.90;96646.50;5048841;28;20202;-70
2022/06/08 03:49:24;;;;;;;5.40;4.40;;;;;;;16.58;66.83;96648.50;5048119;28;20201;-70
2022/06/08 03:51:56;;;;;;;5.27;4.50;;;;;;;16.41;68.16;96651.50;5032638;28;20256;-71
2022/06/08 03:54:29;;;;;;;5.13;4.63;;;;;;;16.68;67.21;96652.06;5048479;28;20185;-74
2022/06/08 03:57:00;;;;;;;4.63;4.17;;;;;;;17.03;66.24;96660.66;5066779;28;20189;-71
2022/06/08 03:59:27;;;;;;;4.07;3.67;;;;;;;16.94;65.96;96650.91;5048376;28;20189;-70
2022/06/08 04:01:59;;;;;;;5.87;4.23;;;;;;;16.79;66.89;96652.09;5048124;28;20224;-70
2022/06/08 04:04:26;;;;;;;8.53;4.67;;;;;;;16.75;67.32;96656.75;5048842;28;20236;-69
2022/06/08 04:06:54;;;;;;;6.13;4.60;;;;;;;16.52;68.06;96651.59;5024612;28;20236;-71
2022/06/08 04:09:21;;;;;;;7.30;5.27;;;;;;;16.58;68.09;96654.56;5066437;28;20288;-72
2022/06/08 04:11:51;;;;;;;9.67;4.73;;;;;;;16.59;68.34;96660.63;5048034;28;20310;-72
2022/06/08 04:14:18;;;;;;;5.97;4.30;;;;;;;16.25;69.14;96644.84;5065825;28;20189;-71
2022/06/08 04:16:48;;;;;;;7.13;5.20;;;;;;;16.32;69.44;96650.44;5048204;28;20680;-72
2022/06/08 04:19:19;;;;;;;7.63;4.63;;;;;;;16.39;69.23;96646.41;5047146;28;20193;-73
2022/06/08 04:21:47;;;;;;;8.77;4.77;;;;;;;16.23;70.03;96643.28;5048309;28;20216;-73
2022/06/08 04:24:19;;;;;;;7.60;4.90;;;;;;;16.28;70.30;96652.44;5047533;28;20574;-73
2022/06/08 04:26:52;;;;;;;6.03;4.70;;;;;;;16.51;69.80;96652.50;5048056;28;20225;-70
2022/06/08 04:29:25;;;;;;;7.30;4.90;;;;;;;16.59;69.79;96655.41;5065870;28;20187;-71
2022/06/08 04:31:53;;;;;;;6.53;5.20;;;;;;;16.78;69.39;96653.88;5047921;28;20277;-71
2022/06/08 04:34:24;;;;;;;6.70;5.10;;;;;;;17.24;68.58;96664.25;5047959;28;20193;-72
2022/06/08 04:36:52;;;;;;;4.53;4.10;;;;;;;17.00;68.89;96655.69;5047926;28;20208;-73
2022/06/08 04:39:23;;;;;;;6.77;4.80;;;;;;;17.27;68.63;96666.59;5051799;28;20264;-72
2022/06/08 04:41:56;;;;;;;6.90;4.70;;;;;;;17.21;69.87;96664.47;5051091;28;20234;-72
2022/06/08 04:44:29;;;;;;;7.63;4.40;;;;;;;17.38;69.15;96655.28;5051339;28;20193;-72
2022/06/08 04:46:56;;;;;;;9.93;4.90;;;;;;;18.26;66.18;96659.50;5034386;28;20584;-72
2022/06/08 04:49:23;;;;;;;7.60;4.90;;;;;;;19.09;63.61;96655.91;5050950;28;20575;-73
2022/06/08 04:51:52;;;;;;;7.17;4.97;;;;;;;19.72;61.65;96659.19;5069374;28;20229;-73
2022/06/08 04:54:21;;;;;;;4.87;3.57;;;;;;;20.08;60.46;96653.25;5033897;28;20671;-72
2022/06/08 04:56:49;;;;;;;5.13;4.13;;;;;;;20.26;59.68;96657.72;5051084;28;20268;-72
2022/06/08 04:59:16;;;;;;;4.47;3.97;;;;;;;20.20;59.43;96663.53;5050800;28;20200;-72
2022/06/08 05:01:52;;;;;;;3.87;3.47;;;;;;;19.70;60.65;96661.91;5035439;28;20195;-73
2022/06/08 05:04:20;;;;;;;5.80;3.80;;;;;;;19.97;60.32;96669.19;5034181;28;20678;-70
2022/06/08 05:06:49;;;;;;;4.73;4.30;;;;;;;19.90;60.83;96662.81;5051160;28;20275;-71
2022/06/08 05:09:17;;;;;;;5.13;4.07;;;;;;;19.84;61.08;96652.84;5051203;28;20193;-71
2022/06/08 05:11:46;;;;;;;4.03;3.63;;;;;;;20.10;59.55;96664.47;5050596;28;20285;-71
2022/06/08 05:14:17;;;;;;;4.57;3.30;;;;;;;19.99;59.30;96667.25;5034280;28;20735;-71
2022/06/08 05:16:44;;;;;;;6.73;4.40;;;;;;;19.98;59.44;96662.94;5050435;28;20188;-73
2022/06/08 05:19:11;;;;;;;4.30;3.30;;;;;;;19.65;60.69;96656.25;5050424;28;20215;-72
2022/06/08 05:21:39;;;;;;;3.63;3.20;;;;;;;19.78;61.01;96670.00;5050603;28;20226;-72
2022/06/08 05:24:12;;;;;;;4.93;3.40;;;;;;;20.10;59.89;96657.44;5034582;28;20672;-72
2022/06/08 05:26:43;;;;;;;3.13;2.83;;;;;;;20.54;57.79;96656.06;5050606;28;20228;-73
2022/06/08 05:29:11;;;;;;;7.70;3.20;;;;;;;20.85;56.19;96668.06;5050360;28;20268;-73
2022/06/08 05:31:38;;;;;;;3.63;3.00;;;;;;;21.08;56.20;96658.06;5050824;28;20224;-72
2022/06/08 05:34:06;;;;;;;3.67;3.20;;;;;;;21.15;56.00;96663.56;5033708;28;20288;-72
2022/06/08 05:36:35;;;;;;;3.80;3.10;;;;;;;21.24;55.54;96646.91;5050312;28;20189;-72
2022/06/08 05:39:06;;;;;;;3.70;3.40;;;;;;;20.84;56.72;96629.53;5050496;28;20569;-71
2022/06/08 05:41:39;;;;;;;5.13;3.70;;;;;;;21.14;56.74;96661.91;5033287;28;20213;-72
2022/06/08 05:44:08;;;;;;;5.50;3.80;;;;;;;21.12;56.66;96658.59;5017854;28;20635;-72
2022/06/08 05:46:35;;;;;;;7.50;3.73;;;;;;;21.50;56.19;96659.25;5033759;28;20190;-73
2022/06/08 05:49:07;;;;;;;5.53;4.73;;;;;;;22.15;53.91;96660.00;5049485;28;20191;-71
2022/06/08 05:51:38;;;;;;;4.23;3.27;;;;;;;22.38;52.59;96656.75;5049910;28;20269;-72
2022/06/08 05:54:07;;;;;;;5.47;4.10;;;;;;;22.36;52.98;96656.06;5033187;28;20595;-72
2022/06/08 05:56:35;;;;;;;7.60;4.27;;;;;;;22.55;51.69;96661.19;5050303;28;20195;-72
2022/06/08 05:59:04;;;;;;;10.53;4.33;;;;;;;22.30;52.14;96654.03;5032839;28;20659;-72
2022/06/08 06:01:34;;;;;;;6.67;4.57;;;;;;;22.76;51.32;96666.16;5049940;28;20196;-73
2022/06/08 06:04:05;;;;;;;5.03;4.37;;;;;;;23.10;50.76;96663.59;5049424;28;20285;-72
2022/06/08 06:06:34;;;;;;;5.67;3.80;;;;;;;22.99;49.89;96662.03;5049654;28;20455;-71
2022/06/08 06:09:04;;;;;;;15.93;7.67;;;;;;;23.01;50.82;96653.94;5033450;28;20678;-73
2022/06/08 06:11:33;;;;;;;6.50;4.63;;;;;;;23.02;50.77;96660.91;5049721;28;20256;-72
2022/06/08 06:14:00;;;;;;;4.93;3.90;;;;;;;23.46;49.92;96654.53;5049763;28;20196;-72
2022/06/08 06:16:29;;;;;;;8.60;4.30;;;;;;;23.75;48.62;96639.13;5049240;28;20624;-73
2022/06/08 06:18:57;;;;;;;7.73;4.73;;;;;;;23.79;48.69;96653.69;5049705;28;20260;-73
2022/06/08 06:21:49;;;;;;;5.40;4.10;;;;;;;23.96;49.07;96658.03;5049430;28;20195;-71
2022/06/08 06:24:42;;;;;;;10.70;4.37;;;;;;;24.13;48.86;96653.63;5049300;28;20292;-73
2022/06/08 06:27:38;;;;;;;6.70;4.33;;;;;;;24.10;47.98;96654.78;4995350;28;20284;-72
2022/06/08 06:30:31;;;;;;;5.57;4.80;;;;;;;23.72;47.73;96623.56;5049382;28;20196;-72
2022/06/08 06:33:21;;;;;;;6.97;3.90;;;;;;;23.54;48.87;96659.88;5032899;28;20630;-74
2022/06/08 06:35:50;;;;;;;11.27;5.80;;;;;;;23.60;48.73;96648.66;5049969;28;20735;-73
2022/06/08 06:38:17;;;;;;;4.73;4.17;;;;;;;22.94;50.66;96656.38;5032313;28;20549;-73
2022/06/08 06:40:44;;;;;;;9.47;4.93;;;;;;;22.67;51.14;96655.69;5032488;28;20185;-74
2022/06/08 06:43:16;;;;;;;8.67;5.57;;;;;;;;;;5032089;28;20351;-73
2022/06/08 06:45:43;;;;;;;10.87;8.83;;;;;;;22.57;51.58;96650.47;5049050;28;20192;-72
2022/06/08 06:48:25;;;;;;;15.23;7.27;;;;;;;22.73;51.05;96645.31;5048958;28;20262;-74
2022/06/08 06:50:57;;;;;;;23.70;11.30;;;;;;;22.32;52.45;96652.06;5048239;28;20194;-71
2022/06/08 06:53:25;;;;;;;6.57;4.80;;;;;;;22.41;52.06;96647.69;5048742;28;20196;-72
2022/06/08 06:55:55;;;;;;;9.23;4.70;;;;;;;22.78;51.53;96647.50;5048441;28;20289;-73
2022/06/08 06:58:37;;;;;;;5.07;3.80;;;;;;;22.95;50.53;96644.00;5033543;28;20699;-73
2022/06/08 07:01:06;;;;;;;8.30;4.37;;;;;;;22.57;52.34;96630.19;5048098;28;20204;-71
2022/06/08 07:03:35;;;;;;;6.13;4.20;;;;;;;22.86;52.33;96634.34;5031307;28;20616;-72
2022/06/08 07:06:06;;;;;;;7.30;4.00;;;;;;;23.10;51.73;96640.59;5049474;28;20275;-72
2022/06/08 07:08:34;;;;;;;8.43;5.03;;;;;;;23.26;51.11;96643.38;5048120;28;20584;-73
2022/06/08 07:13:52;;;;;;;5.13;3.60;;;;;;;22.84;50.35;96636.31;5048398;28;20189;-71
2022/06/08 07:16:20;;;;;;;4.87;4.20;;;;;;;23.19;49.47;96644.13;5048265;28;20692;-72
2022/06/08 07:18:47;;;;;;;5.17;3.20;;;;;;;23.38;49.48;96626.28;5031786;28;20565;-72
2022/06/08 07:21:17;;;;;;;3.70;3.00;;;;;;;23.54;48.89;96632.59;5030871;28;20202;-72
2022/06/08 07:23:44;;;;;;;4.70;3.10;;;;;;;23.98;48.35;96637.53;5067029;28;20259;-73
2022/06/08 07:26:12;;;;;;;4.57;4.07;;;;;;;23.72;48.35;96628.03;5008469;28;20316;-72
2022/06/08 07:28:40;;;;;;;8.93;5.73;;;;;;;23.95;48.30;96619.31;5008654;28;20208;-73
2022/06/08 07:31:12;;;;;;;4.70;3.77;;;;;;;24.06;48.91;96620.88;5008407;28;20202;-74
2022/06/08 07:33:40;;;;;;;5.17;3.70;;;;;;;24.39;47.46;96621.72;5026590;28;20189;-75
2022/06/08 07:36:07;;;;;;;5.50;3.20;;;;;;;24.87;47.00;96619.06;5026563;28;20240;-73
2022/06/08 07:38:35;;;;;;;7.90;6.47;;;;;;;24.84;47.18;96614.09;5026235;28;20185;-74
2022/06/08 07:41:02;;;;;;;7.90;4.10;;;;;;;24.82;46.56;96608.97;5008738;28;20231;-72
2022/06/08 07:43:30;;;;;;;5.90;3.50;;;;;;;25.09;45.96;96605.09;5024565;28;20743;-72
2022/06/08 07:45:57;;;;;;;6.30;3.43;;;;;;;25.19;45.08;96605.72;5026298;28;20193;-73
2022/06/08 07:51:11;;;;;;;4.67;3.10;;;;;;;25.34;45.30;96609.34;5024541;28;20197;-73
2022/06/08 07:53:40;;;;;;;3.90;3.43;;;;;;;25.43;45.33;96615.47;5025011;28;20194;-72
2022/06/08 07:56:07;;;;;;;3.33;2.90;;;;;;;25.46;45.29;96610.63;5024150;28;20244;-72
2022/06/08 07:58:35;;;;;;;3.60;3.10;;;;;;;24.24;48.12;96614.44;5024898;28;20186;-72
2022/06/08 08:01:03;;;;;;;8.40;4.97;;;;;;;24.51;48.28;96617.75;5025764;28;20197;-72
2022/06/08 08:03:34;;;;;;;5.00;3.83;;;;;;;24.64;47.42;96599.53;5025757;28;20226;-72
2022/06/08 08:06:02;;;;;;;6.33;3.40;;;;;;;24.88;47.30;96596.88;5040779;28;20212;-74
2022/06/08 08:08:29;;;;;;;5.50;3.40;;;;;;;25.20;46.89;96598.63;5025368;28;20196;-72
2022/06/08 08:10:57;;;;;;;7.30;4.97;;;;;;;25.28;46.53;96598.59;5024528;28;20224;-73
2022/06/08 08:13:24;;;;;;;6.47;3.67;;;;;;;25.58;45.56;96601.28;5027402;28;20786;-72
2022/06/08 08:15:51;;;;;;;6.07;4.10;;;;;;;25.73;45.54;96604.03;5029779;28;20606;-72
2022/06/08 08:18:19;;;;;;;3.90;2.90;;;;;;;25.75;45.14;96600.22;5027716;28;20237;-71
2022/06/08 08:20:46;;;;;;;8.50;3.67;;;;;;;25.82;45.48;96592.38;5029219;28;20218;-72
2022/06/08 08:23:14;;;;;;;6.60;3.90;;;;;;;25.94;45.34;96598.13;5044585;28;20282;-72
2022/06/08 08:25:41;;;;;;;4.20;3.37;;;;;;;25.99;45.45;96595.78;5034731;28;20805;-73
2022/06/08 08:28:08;;;;;;;2.97;2.63;;;;;;;25.99;45.36;96596.56;5048434;28;20202;-74
2022/06/08 08:30:36;;;;;;;4.67;3.73;;;;;;;25.76;45.54;96598.41;5030894;28;20204;-72
2022/06/08 08:33:06;;;;;;;4.97;3.60;;;;;;;26.12;44.83;96588.06;5048560;28;20197;-72
2022/06/08 08:35:33;;;;;;;6.60;4.20;;;;;;;26.11;45.56;96591.72;5047667;28;20552;-72
2022/06/08 08:38:01;;;;;;;5.13;4.10;;;;;;;26.12;45.42;96588.06;5048996;28;20248;-77
2022/06/08 08:40:57;;;;;;;11.90;9.97;;;;;;;25.75;45.28;96594.91;5047811;28;20197;-73
2022/06/08 08:43:31;;;;;;;3.33;2.90;;;;;;;25.79;44.85;96590.06;5047575;28;20334;-73
2022/06/08 08:46:25;;;;;;;9.00;6.50;;;;;;;25.90;45.80;96594.16;5030972;28;20198;-72
2022/06/08 08:49:03;;;;;;;5.63;3.33;;;;;;;26.33;44.84;96597.03;5049533;28;20683;-74
2022/06/08 08:51:42;;;;;;;4.03;3.60;;;;;;;26.41;44.44;96596.13;5048937;28;20182;-73
2022/06/08 08:54:27;;;;;;;6.33;4.03;;;;;;;25.81;45.22;96591.56;5047846;28;20199;-73
2022/06/08 08:57:27;;;;;;;5.93;3.87;;;;;;;26.01;45.83;96594.56;5047234;28;20201;-74
2022/06/08 08:59:55;;;;;;;7.00;3.40;;;;;;;26.12;44.57;96582.75;5030634;28;20709;-75
2022/06/08 09:05:21;;;;;;;3.30;3.00;;;;;;;26.58;44.21;96589.69;5048340;28;20905;-73
2022/06/08 09:07:48;;;;;;;5.57;3.27;;;;;;;26.46;43.67;96591.13;5048777;28;20285;-74
2022/06/08 09:10:19;;;;;;;5.47;3.60;;;;;;;26.49;44.06;96590.75;5046765;28;20201;-72
2022/06/08 09:12:47;;;;;;;3.77;3.13;;;;;;;26.31;44.17;96592.91;5048197;28;20178;-72
2022/06/08 09:15:36;;;;;;;5.27;4.00;;;;;;;25.90;44.35;96595.00;5048603;28;20198;-71
2022/06/08 09:18:05;;;;;;;5.83;2.90;;;;;;;25.17;45.71;96591.00;5048432;28;20224;-72
2022/06/08 09:20:36;;;;;;;5.17;3.40;;;;;;;25.27;45.77;96587.16;5047647;28;20243;-73
2022/06/08 09:23:39;;;;;;;4.63;3.53;;;;;;;25.15;46.05;96588.53;5047417;28;20237;-73
2022/06/08 09:26:16;;;;;;;3.80;3.50;;;;;;;25.01;46.52;96591.88;5058256;28;20228;-72
2022/06/08 09:28:43;;;;;;;4.67;3.07;;;;;;;24.94;46.57;96582.94;5050383;28;20186;-74
2022/06/08 09:31:26;;;;;;;3.37;3.07;;;;;;;24.60;47.47;96587.63;5033711;28;20223;-73
2022/06/08 09:34:20;;;;;;;2.97;2.57;;;;;;;24.39;49.40;96587.31;5050223;28;20958;-74
2022/06/08 09:37:09;;;;;;;4.30;3.63;;;;;;;24.18;49.98;96593.94;5049431;28;20299;-73
2022/06/08 09:39:37;;;;;;;10.37;6.20;;;;;;;24.08;50.26;96581.84;5049755;28;20186;-73
2022/06/08 09:42:18;;;;;;;4.73;4.03;;;;;;;24.07;50.54;96591.59;5068301;28;20203;-73
2022/06/08 09:45:03;;;;;;;6.23;5.13;;;;;;;24.01;50.47;96570.22;5067551;28;20240;-73
2022/06/08 09:51:27;;;;;;;4.33;3.47;;;;;;;24.04;50.04;96576.06;5049218;28;20283;-72
2022/06/08 09:54:17;;;;;;;5.07;3.80;;;;;;;23.84;50.73;96579.97;5049223;28;20209;-74
2022/06/08 09:56:50;;;;;;;5.57;4.10;;;;;;;24.30;50.17;96575.09;5067403;28;20178;-73
2022/06/08 09:59:41;;;;;;;6.83;4.17;;;;;;;24.54;48.89;96564.47;5067664;28;20188;-73
2022/06/08 10:02:12;;;;;;;5.87;3.50;;;;;;;24.36;49.26;96579.72;5048916;28;20185;-72
2022/06/08 10:05:23;;;;;;;6.70;4.10;;;;;;;24.62;48.80;96581.16;5050460;28;20230;-73
2022/06/08 10:08:19;;;;;;;6.57;5.53;;;;;;;24.82;48.34;96563.94;5049665;28;20391;-73
2022/06/08 10:11:34;;;;;;;5.73;4.20;;;;;;;24.97;48.48;96566.72;5067028;28;20214;-74
2022/06/08 10:14:12;;;;;;;5.17;3.47;;;;;;;25.26;47.72;96566.94;5067192;28;20200;-74
2022/06/08 10:16:51;;;;;;;7.77;3.70;;;;;;;25.36;47.25;96567.56;5049077;28;20665;-73
2022/06/08 10:19:55;;;;;;;4.43;3.67;;;;;;;25.35;48.92;96568.53;5016711;28;20197;-74
2022/06/08 10:22:29;;;;;;;5.30;4.57;;;;;;;25.29;48.61;96568.41;5016463;28;20284;-73
2022/06/08 10:25:04;;;;;;;8.50;4.83;;;;;;;25.13;50.46;96571.97;5066838;28;20309;-71
2022/06/08 10:27:55;;;;;;;5.60;4.57;;;;;;;25.19;50.88;96563.31;5067410;28;20200;-74
2022/06/08 10:30:34;;;;;;;5.63;4.37;;;;;;;25.14;50.49;96567.50;5066956;28;20261;-72
2022/06/08 10:33:17;;;;;;;7.00;4.97;;;;;;;25.03;50.86;96553.63;5048795;28;20190;-71
2022/06/08 10:35:55;;;;;;;5.57;4.80;;;;;;;24.96;50.43;96551.81;5048907;28;20280;-75
2022/06/08 10:38:34;;;;;;;7.87;5.07;;;;;;;25.06;51.65;96563.03;5066678;28;20769;-72
2022/06/08 10:44:43;;;;;;;5.87;5.27;;;;;;;24.55;52.63;96558.16;5066894;28;20223;-73
2022/06/08 10:47:13;;;;;;;7.20;5.60;;;;;;;24.35;53.55;96563.00;5066238;28;20201;-75
2022/06/08 10:49:52;;;;;;;6.10;5.00;;;;;;;24.31;53.48;96563.47;5066855;28;20202;-74
2022/06/08 10:52:47;;;;;;;9.07;5.63;;;;;;;24.34;53.01;96552.56;5039660;28;20193;-72
2022/06/08 10:55:18;;;;;;;8.17;5.73;;;;;;;24.43;54.17;96556.84;5048401;28;20243;-71
2022/06/08 10:58:01;;;;;;;6.93;6.07;;;;;;;24.45;54.88;96547.75;5031726;28;20213;-71
2022/06/08 11:01:05;;;;;;;11.63;6.83;;;;;;;24.59;55.17;96562.94;5048449;28;20204;-73
2022/06/08 11:03:44;;;;;;;8.03;6.30;;;;;;;24.63;56.03;96555.50;5066667;28;20226;-72
2022/06/08 11:06:54;;;;;;;9.77;6.90;;;;;;;24.61;56.72;96562.78;5049266;28;20685;-72
2022/06/08 11:09:34;;;;;;;8.00;6.77;;;;;;;24.60;55.61;96563.78;5036200;28;20207;-71
2022/06/08 11:12:11;;;;;;;14.33;7.60;;;;;;;24.65;56.69;96558.78;5066229;28;20218;-71
2022/06/08 11:14:45;;;;;;;9.10;8.20;;;;;;;24.71;58.42;96558.94;5047838;28;20699;-72
2022/06/08 11:17:24;;;;;;;12.53;8.50;;;;;;;24.75;59.53;96559.50;5065895;28;20222;-72
2022/06/08 11:20:03;;;;;;;9.47;8.00;;;;;;;24.60;59.59;96554.03;5066617;28;20674;-74
2022/06/08 11:22:39;;;;;;;10.67;7.43;;;;;;;24.48;60.74;96536.84;5048999;28;20248;-73
2022/06/08 11:25:14;;;;;;;12.47;7.27;;;;;;;24.48;60.23;96546.59;5065804;28;20312;-72
2022/06/08 11:27:43;;;;;;;14.13;7.83;;;;;;;24.52;60.45;96547.91;5048064;28;20585;-72
2022/06/08 11:30:42;;;;;;;13.00;7.17;;;;;;;24.56;61.05;96550.06;5048220;28;20860;-73
2022/06/08 11:33:15;;;;;;;13.90;9.00;;;;;;;24.62;62.56;96559.97;5011549;28;20290;-72
2022/06/08 11:36:33;;;;;;;11.67;9.10;;;;;;;24.54;64.31;96551.22;5047683;28;20198;-72
2022/06/08 11:39:27;;;;;;;9.90;8.13;;;;;;;24.39;63.66;96550.25;4990638;28;20211;-73
2022/06/08 11:42:05;;;;;;;9.27;8.00;;;;;;;24.17;63.94;96539.31;5066062;28;20206;-72
2022/06/08 11:44:35;;;;;;;11.07;9.97;;;;;;;24.08;64.74;96529.75;5047851;28;20246;-74
2022/06/08 11:47:40;;;;;;;11.10;9.13;;;;;;;24.18;65.46;96548.94;5015112;28;20297;-74
2022/06/08 11:50:17;;;;;;;13.57;11.40;;;;;;;24.21;66.07;96524.75;5066272;28;20201;-74
2022/06/08 11:53:02;;;;;;;9.23;8.10;;;;;;;24.34;63.36;96539.34;5047652;28;20198;-71
2022/06/08 11:56:07;;;;;;;9.33;8.53;;;;;;;24.20;63.55;96507.25;5031584;28;20284;-74
2022/06/08 11:58:36;;;;;;;8.00;7.30;;;;;;;24.55;62.73;96547.56;5030902;28;20201;-72
2022/06/08 12:01:14;;;;;;;8.37;7.60;;;;;;;24.58;61.24;96541.94;5048171;28;20297;-73
2022/06/08 12:03:44;;;;;;;8.20;7.37;;;;;;;24.60;61.44;96534.66;5065366;28;20225;-72
2022/06/08 12:06:23;;;;;;;6.93;6.33;;;;;;;24.79;59.75;96551.03;5047652;28;20796;-72
2022/06/08 12:09:00;;;;;;;7.80;7.10;;;;;;;24.79;60.34;96534.31;5065791;28;20272;-72
2022/06/08 12:16:33;;;;;;;7.27;6.17;;;;;;;24.36;58.31;96551.38;5056067;28;20213;-72
2022/06/08 12:19:05;;;;;;;6.50;5.90;;;;;;;24.44;57.31;96545.28;5066235;28;20275;-72
2022/06/08 12:21:40;;;;;;;7.23;5.77;;;;;;;24.22;56.87;96542.31;5065878;28;20250;-71
2022/06/08 12:24:13;;;;;;;6.83;5.23;;;;;;;23.74;61.07;96552.81;5066098;28;20218;-72
2022/06/08 12:27:21;;;;;;;6.00;4.90;;;;;;;23.63;61.33;96532.00;5047756;28;20554;-72
2022/06/08 12:29:58;;;;;;;5.80;4.73;;;;;;;23.56;62.35;96546.84;4964636;28;20298;-72
2022/06/08 12:32:30;;;;;;;4.47;3.77;;;;;;;23.36;61.19;96540.19;4965133;28;20723;-72
2022/06/08 12:35:06;;;;;;;4.00;3.70;;;;;;;23.18;61.56;96529.72;5025787;28;20201;-71